sensor_id;sensor_type;location;lat;lon;timestamp;pressure;altitude;pressure_sealevel;temperature;humidity
43820;BME280;67762;52.476;6.046;2023-03-31T00:02:10;100260.69;;;10.70;76.79
43820;BME280;67762;52.476;6.046;2023-03-31T00:04:40;100258.09;;;10.62;76.69
43820;BME280;67762;52.476;6.046;2023-03-31T00:07:14;100252.19;;;10.51;76.77
43820;BME280;67762;52.476;6.046;2023-03-31T00:09:41;100246.00;;;10.51;77.14
43820;BME280;67762;52.476;6.046;2023-03-31T00:12:12;100244.47;;;10.56;77.03
43820;BME280;67762;52.476;6.046;2023-03-31T00:14:38;100240.63;;;10.59;77.44
43820;BME280;67762;52.476;6.046;2023-03-31T00:17:04;100239.31;;;10.55;77.46
43820;BME280;67762;52.476;6.046;2023-03-31T00:19:30;100218.03;;;10.47;77.42
43820;BME280;67762;52.476;6.046;2023-03-31T00:21:58;100226.41;;;10.44;77.42
43820;BME280;67762;52.476;6.046;2023-03-31T00:24:28;100221.78;;;10.38;77.62
43820;BME280;67762;52.476;6.046;2023-03-31T00:27:01;100219.47;;;10.35;77.78
43820;BME280;67762;52.476;6.046;2023-03-31T00:29:28;100223.31;;;10.32;77.99
43820;BME280;67762;52.476;6.046;2023-03-31T00:31:55;100206.47;;;10.32;77.88
43820;BME280;67762;52.476;6.046;2023-03-31T00:34:24;100212.28;;;10.35;77.93
43820;BME280;67762;52.476;6.046;2023-03-31T00:36:50;100206.41;;;10.40;77.83
43820;BME280;67762;52.476;6.046;2023-03-31T00:39:21;100204.41;;;10.42;78.29
43820;BME280;67762;52.476;6.046;2023-03-31T00:41:47;100199.25;;;10.40;78.52
43820;BME280;67762;52.476;6.046;2023-03-31T00:49:14;100183.59;;;10.37;78.73
43820;BME280;67762;52.476;6.046;2023-03-31T00:51:42;100172.09;;;10.37;78.79
43820;BME280;67762;52.476;6.046;2023-03-31T00:54:08;100179.94;;;10.38;79.03
43820;BME280;67762;52.476;6.046;2023-03-31T00:56:39;100166.59;;;10.38;79.33
43820;BME280;67762;52.476;6.046;2023-03-31T00:59:08;100171.56;;;10.41;78.86
43820;BME280;67762;52.476;6.046;2023-03-31T01:01:35;100170.91;;;10.39;79.02
43820;BME280;67762;52.476;6.046;2023-03-31T01:04:07;100158.91;;;10.43;79.68
43820;BME280;67762;52.476;6.046;2023-03-31T01:06:37;100156.22;;;10.43;79.22
43820;BME280;67762;52.476;6.046;2023-03-31T01:09:13;100154.41;;;10.44;79.56
43820;BME280;67762;52.476;6.046;2023-03-31T01:11:43;100146.75;;;10.41;79.86
43820;BME280;67762;52.476;6.046;2023-03-31T01:14:11;100144.09;;;10.41;79.87
43820;BME280;67762;52.476;6.046;2023-03-31T01:16:36;100148.66;;;10.47;79.46
43820;BME280;67762;52.476;6.046;2023-03-31T01:19:09;100137.66;;;10.50;79.90
43820;BME280;67762;52.476;6.046;2023-03-31T01:27:58;100120.09;;;10.55;79.42
43820;BME280;67762;52.476;6.046;2023-03-31T01:45:15;100072.72;;;10.43;80.04
43820;BME280;67762;52.476;6.046;2023-03-31T01:53:14;100075.03;;;10.46;80.18
43820;BME280;67762;52.476;6.046;2023-03-31T01:58:35;100065.94;;;10.55;79.94
43820;BME280;67762;52.476;6.046;2023-03-31T02:01:20;100057.75;;;10.56;80.39
43820;BME280;67762;52.476;6.046;2023-03-31T02:04:00;100034.75;;;10.55;80.48
43820;BME280;67762;52.476;6.046;2023-03-31T02:06:34;100040.91;;;10.56;80.89
43820;BME280;67762;52.476;6.046;2023-03-31T02:09:07;100031.91;;;10.57;80.07
43820;BME280;67762;52.476;6.046;2023-03-31T02:11:36;100029.88;;;10.59;80.40
43820;BME280;67762;52.476;6.046;2023-03-31T02:14:04;100034.00;;;10.62;80.39
43820;BME280;67762;52.476;6.046;2023-03-31T02:16:36;100030.97;;;10.65;80.61
43820;BME280;67762;52.476;6.046;2023-03-31T02:19:07;100011.09;;;10.67;80.61
43820;BME280;67762;52.476;6.046;2023-03-31T02:21:37;100008.06;;;10.70;80.83
43820;BME280;67762;52.476;6.046;2023-03-31T02:24:08;100002.56;;;10.72;80.60
43820;BME280;67762;52.476;6.046;2023-03-31T02:26:40;100001.38;;;10.74;80.67
43820;BME280;67762;52.476;6.046;2023-03-31T02:29:07;100005.03;;;10.73;81.16
43820;BME280;67762;52.476;6.046;2023-03-31T02:31:51;99999.22;;;10.70;81.08
43820;BME280;67762;52.476;6.046;2023-03-31T02:34:21;99993.00;;;10.63;80.85
43820;BME280;67762;52.476;6.046;2023-03-31T02:36:48;99984.44;;;10.52;82.29
43820;BME280;67762;52.476;6.046;2023-03-31T02:39:24;99974.22;;;10.41;82.09
43820;BME280;67762;52.476;6.046;2023-03-31T02:41:52;99972.31;;;10.35;83.12
43820;BME280;67762;52.476;6.046;2023-03-31T02:44:19;99954.38;;;10.29;83.13
43820;BME280;67762;52.476;6.046;2023-03-31T02:46:45;99956.56;;;10.26;83.62
43820;BME280;67762;52.476;6.046;2023-03-31T02:49:12;99946.09;;;10.24;84.24
43820;BME280;67762;52.476;6.046;2023-03-31T02:54:53;99940.66;;;10.18;84.28
43820;BME280;67762;52.476;6.046;2023-03-31T03:16:14;99881.91;;;10.26;86.26
43820;BME280;67762;52.476;6.046;2023-03-31T03:18:51;99882.38;;;10.29;86.09
43820;BME280;67762;52.476;6.046;2023-03-31T03:21:16;99871.72;;;10.29;86.40
43820;BME280;67762;52.476;6.046;2023-03-31T03:23:42;99870.31;;;10.33;86.79
43820;BME280;67762;52.476;6.046;2023-03-31T03:26:08;99857.44;;;10.37;86.74
43820;BME280;67762;52.476;6.046;2023-03-31T03:28:34;99856.25;;;10.39;87.22
43820;BME280;67762;52.476;6.046;2023-03-31T03:30:59;99851.28;;;10.36;86.26
43820;BME280;67762;52.476;6.046;2023-03-31T03:33:25;99841.00;;;10.33;86.33
43820;BME280;67762;52.476;6.046;2023-03-31T03:35:51;99837.06;;;10.29;86.87
43820;BME280;67762;52.476;6.046;2023-03-31T03:38:17;99828.69;;;10.32;86.79
43820;BME280;67762;52.476;6.046;2023-03-31T03:40:42;99830.31;;;10.33;86.43
43820;BME280;67762;52.476;6.046;2023-03-31T03:43:08;99825.00;;;10.33;86.69
43820;BME280;67762;52.476;6.046;2023-03-31T03:45:34;99814.53;;;10.32;87.06
43820;BME280;67762;52.476;6.046;2023-03-31T03:47:59;99805.06;;;10.29;87.33
43820;BME280;67762;52.476;6.046;2023-03-31T03:50:25;99805.06;;;10.29;87.63
43820;BME280;67762;52.476;6.046;2023-03-31T03:52:50;99805.06;;;10.29;87.27
43820;BME280;67762;52.476;6.046;2023-03-31T03:55:16;99806.69;;;10.30;87.00
43820;BME280;67762;52.476;6.046;2023-03-31T03:57:42;99795.88;;;10.32;87.36
43820;BME280;67762;52.476;6.046;2023-03-31T04:00:08;99797.69;;;10.31;87.17
43820;BME280;67762;52.476;6.046;2023-03-31T04:02:38;99787.88;;;10.32;87.45
43820;BME280;67762;52.476;6.046;2023-03-31T04:05:04;99778.03;;;10.32;87.61
43820;BME280;67762;52.476;6.046;2023-03-31T04:07:30;99778.22;;;10.31;87.83
43820;BME280;67762;52.476;6.046;2023-03-31T04:09:55;99774.72;;;10.30;87.80
43820;BME280;67762;52.476;6.046;2023-03-31T04:12:21;99772.88;;;10.31;87.17
43820;BME280;67762;52.476;6.046;2023-03-31T04:14:47;99762.41;;;10.29;87.16
43820;BME280;67762;52.476;6.046;2023-03-31T04:17:13;99758.09;;;10.28;86.72
43820;BME280;67762;52.476;6.046;2023-03-31T04:19:40;99750.09;;;10.28;87.26
43820;BME280;67762;52.476;6.046;2023-03-31T04:22:07;99753.94;;;10.26;87.29
43820;BME280;67762;52.476;6.046;2023-03-31T04:24:36;99745.50;;;10.22;87.50
43820;BME280;67762;52.476;6.046;2023-03-31T04:27:03;99739.34;;;10.22;87.28
43820;BME280;67762;52.476;6.046;2023-03-31T04:29:32;99732.91;;;10.16;87.63
43820;BME280;67762;52.476;6.046;2023-03-31T04:31:58;99731.28;;;10.15;87.41
43820;BME280;67762;52.476;6.046;2023-03-31T04:34:28;99728.78;;;10.14;87.17
43820;BME280;67762;52.476;6.046;2023-03-31T04:37:00;99723.00;;;10.10;87.70
43820;BME280;67762;52.476;6.046;2023-03-31T04:39:27;99724.38;;;10.06;87.39
43820;BME280;67762;52.476;6.046;2023-03-31T04:41:56;99706.94;;;10.04;87.44
43820;BME280;67762;52.476;6.046;2023-03-31T04:44:22;99711.16;;;9.98;87.91
43820;BME280;67762;52.476;6.046;2023-03-31T04:46:48;99699.41;;;9.92;88.12
43820;BME280;67762;52.476;6.046;2023-03-31T04:49:14;99696.97;;;9.91;88.00
43820;BME280;67762;52.476;6.046;2023-03-31T04:51:39;99689.50;;;9.86;88.27
43820;BME280;67762;52.476;6.046;2023-03-31T04:54:05;99687.03;;;9.85;87.93
43820;BME280;67762;52.476;6.046;2023-03-31T04:56:31;99683.72;;;9.83;88.00
43820;BME280;67762;52.476;6.046;2023-03-31T04:58:56;99675.94;;;9.81;88.22
43820;BME280;67762;52.476;6.046;2023-03-31T05:01:22;99672.63;;;9.79;88.33
43820;BME280;67762;52.476;6.046;2023-03-31T05:03:48;99671.16;;;9.77;88.51
43820;BME280;67762;52.476;6.046;2023-03-31T05:06:17;99661.72;;;9.74;88.66
43820;BME280;67762;52.476;6.046;2023-03-31T05:08:43;99654.91;;;9.72;88.69
43820;BME280;67762;52.476;6.046;2023-03-31T05:11:09;99646.09;;;9.71;88.70
43820;BME280;67762;52.476;6.046;2023-03-31T05:13:35;99639.94;;;9.71;88.86
43820;BME280;67762;52.476;6.046;2023-03-31T05:16:08;99638.28;;;9.70;88.95
43820;BME280;67762;52.476;6.046;2023-03-31T05:18:35;99627.63;;;9.70;88.93
43820;BME280;67762;52.476;6.046;2023-03-31T05:21:12;99609.00;;;9.70;88.95
43820;BME280;67762;52.476;6.046;2023-03-31T05:23:39;99609.00;;;9.70;89.39
43820;BME280;67762;52.476;6.046;2023-03-31T05:26:04;99611.84;;;9.68;89.52
43820;BME280;67762;52.476;6.046;2023-03-31T05:28:30;99609.81;;;9.70;89.44
43820;BME280;67762;52.476;6.046;2023-03-31T05:30:58;99586.84;;;9.69;89.62
43820;BME280;67762;52.476;6.046;2023-03-31T05:33:24;99582.34;;;9.70;89.76
43820;BME280;67762;52.476;6.046;2023-03-31T05:35:50;99580.53;;;9.70;89.61
43820;BME280;67762;52.476;6.046;2023-03-31T05:38:15;99582.97;;;9.72;89.77
43820;BME280;67762;52.476;6.046;2023-03-31T05:40:41;99574.00;;;9.73;90.09
43820;BME280;67762;52.476;6.046;2023-03-31T05:43:06;99572.16;;;9.73;90.12
43820;BME280;67762;52.476;6.046;2023-03-31T05:45:32;99578.13;;;9.75;90.48
43820;BME280;67762;52.476;6.046;2023-03-31T05:47:58;99569.13;;;9.76;90.27
43820;BME280;67762;52.476;6.046;2023-03-31T05:50:23;99553.13;;;9.76;90.06
43820;BME280;67762;52.476;6.046;2023-03-31T05:52:49;99555.44;;;9.79;90.42
43820;BME280;67762;52.476;6.046;2023-03-31T05:55:15;99547.22;;;9.81;90.43
43820;BME280;67762;52.476;6.046;2023-03-31T05:57:40;99540.69;;;9.83;90.03
43820;BME280;67762;52.476;6.046;2023-03-31T06:00:06;99537.66;;;9.86;90.51
43820;BME280;67762;52.476;6.046;2023-03-31T06:02:34;99541.59;;;9.90;90.71
43820;BME280;67762;52.476;6.046;2023-03-31T06:05:01;99536.88;;;9.92;90.68
43820;BME280;67762;52.476;6.046;2023-03-31T06:07:28;99532.84;;;9.96;90.58
43820;BME280;67762;52.476;6.046;2023-03-31T06:09:55;99520.97;;;9.99;90.39
43820;BME280;67762;52.476;6.046;2023-03-31T06:12:20;99515.44;;;10.00;90.35
43820;BME280;67762;52.476;6.046;2023-03-31T06:14:46;99531.03;;;10.04;90.67
43820;BME280;67762;52.476;6.046;2023-03-31T06:17:11;99514.84;;;10.05;90.35
43820;BME280;67762;52.476;6.046;2023-03-31T06:19:37;99511.38;;;10.05;90.29
43820;BME280;67762;52.476;6.046;2023-03-31T06:22:02;99513.84;;;10.06;90.46
43820;BME280;67762;52.476;6.046;2023-03-31T06:24:28;99504.00;;;10.07;90.97
43820;BME280;67762;52.476;6.046;2023-03-31T06:26:54;99496.84;;;10.07;90.38
43820;BME280;67762;52.476;6.046;2023-03-31T06:29:19;99497.69;;;10.08;90.39
43820;BME280;67762;52.476;6.046;2023-03-31T06:31:45;99498.31;;;10.10;90.61
43820;BME280;67762;52.476;6.046;2023-03-31T06:34:11;99499.75;;;10.12;90.74
43820;BME280;67762;52.476;6.046;2023-03-31T06:36:36;99493.25;;;10.15;90.98
43820;BME280;67762;52.476;6.046;2023-03-31T06:39:02;99487.69;;;10.16;90.75
43820;BME280;67762;52.476;6.046;2023-03-31T06:41:29;99482.19;;;10.18;90.99
43820;BME280;67762;52.476;6.046;2023-03-31T06:43:55;99481.38;;;10.17;90.90
43820;BME280;67762;52.476;6.046;2023-03-31T06:46:20;99483.19;;;10.17;90.89
43820;BME280;67762;52.476;6.046;2023-03-31T06:48:46;99476.88;;;10.18;90.83
43820;BME280;67762;52.476;6.046;2023-03-31T06:51:11;99480.16;;;10.20;91.11
43820;BME280;67762;52.476;6.046;2023-03-31T06:53:37;99482.00;;;10.19;90.80
43820;BME280;67762;52.476;6.046;2023-03-31T06:56:04;99473.81;;;10.21;91.08
43820;BME280;67762;52.476;6.046;2023-03-31T06:58:30;99464.78;;;10.22;91.03
43820;BME280;67762;52.476;6.046;2023-03-31T07:00:56;99463.78;;;10.23;91.11
43820;BME280;67762;52.476;6.046;2023-03-31T07:03:22;99453.72;;;10.25;90.35
43820;BME280;67762;52.476;6.046;2023-03-31T07:05:51;99459.50;;;10.28;90.94
43820;BME280;67762;52.476;6.046;2023-03-31T07:08:17;99446.78;;;10.30;90.93
43820;BME280;67762;52.476;6.046;2023-03-31T07:10:43;99454.78;;;10.30;90.91
43820;BME280;67762;52.476;6.046;2023-03-31T07:13:14;99440.44;;;10.31;90.23
43820;BME280;67762;52.476;6.046;2023-03-31T07:15:40;99450.53;;;10.36;90.70
43820;BME280;67762;52.476;6.046;2023-03-31T07:18:06;99437.63;;;10.39;90.85
43820;BME280;67762;52.476;6.046;2023-03-31T07:20:32;99446.25;;;10.41;90.56
43820;BME280;67762;52.476;6.046;2023-03-31T07:22:58;99446.47;;;10.40;89.93
43820;BME280;67762;52.476;6.046;2023-03-31T07:25:23;99436.63;;;10.40;90.09
43820;BME280;67762;52.476;6.046;2023-03-31T07:27:49;99428.22;;;10.43;90.05
43820;BME280;67762;52.476;6.046;2023-03-31T07:30:18;99428.63;;;10.47;90.50
43820;BME280;67762;52.476;6.046;2023-03-31T07:32:49;99430.72;;;10.51;90.47
43820;BME280;67762;52.476;6.046;2023-03-31T07:35:16;99435.28;;;10.57;89.74
43820;BME280;67762;52.476;6.046;2023-03-31T07:37:44;99424.00;;;10.62;90.17
43820;BME280;67762;52.476;6.046;2023-03-31T07:40:18;99433.44;;;10.65;89.90
43820;BME280;67762;52.476;6.046;2023-03-31T07:42:44;99424.44;;;10.66;90.05
43820;BME280;67762;52.476;6.046;2023-03-31T07:45:11;99426.28;;;10.65;89.73
43820;BME280;67762;52.476;6.046;2023-03-31T07:47:37;99431.78;;;10.64;89.72
43820;BME280;67762;52.476;6.046;2023-03-31T07:50:06;99428.72;;;10.60;89.03
43820;BME280;67762;52.476;6.046;2023-03-31T07:52:32;99431.56;;;10.58;89.04
43820;BME280;67762;52.476;6.046;2023-03-31T07:54:58;99426.44;;;10.57;89.47
43820;BME280;67762;52.476;6.046;2023-03-31T07:57:24;99419.91;;;10.60;88.79
43820;BME280;67762;52.476;6.046;2023-03-31T07:59:50;99420.50;;;10.62;89.45
43820;BME280;67762;52.476;6.046;2023-03-31T08:02:16;99420.31;;;10.63;89.08
43820;BME280;67762;52.476;6.046;2023-03-31T08:04:42;99415.78;;;10.64;88.78
43820;BME280;67762;52.476;6.046;2023-03-31T08:07:10;99416.63;;;10.64;89.28
43820;BME280;67762;52.476;6.046;2023-03-31T08:09:36;99418.06;;;10.67;88.75
43820;BME280;67762;52.476;6.046;2023-03-31T08:12:04;99411.31;;;10.71;89.34
43820;BME280;67762;52.476;6.046;2023-03-31T08:14:30;99411.53;;;10.76;89.26
43820;BME280;67762;52.476;6.046;2023-03-31T08:16:55;99410.75;;;10.82;88.51
43820;BME280;67762;52.476;6.046;2023-03-31T08:19:22;99411.59;;;10.89;88.43
43820;BME280;67762;52.476;6.046;2023-03-31T08:21:49;99399.94;;;10.96;88.79
43820;BME280;67762;52.476;6.046;2023-03-31T08:24:17;99397.25;;;10.96;88.65
43820;BME280;67762;52.476;6.046;2023-03-31T08:26:43;99396.41;;;10.89;88.69
43820;BME280;67762;52.476;6.046;2023-03-31T08:29:09;99407.69;;;10.85;88.65
43820;BME280;67762;52.476;6.046;2023-03-31T08:31:34;99401.31;;;10.86;88.37
43820;BME280;67762;52.476;6.046;2023-03-31T08:34:01;99396.63;;;10.88;88.13
43820;BME280;67762;52.476;6.046;2023-03-31T08:36:28;99395.38;;;10.90;87.85
43820;BME280;67762;52.476;6.046;2023-03-31T08:38:54;99393.94;;;10.94;88.49
43820;BME280;67762;52.476;6.046;2023-03-31T08:43:53;99391.53;;;10.99;88.47
43820;BME280;67762;52.476;6.046;2023-03-31T08:46:20;99391.53;;;10.99;88.53
43820;BME280;67762;52.476;6.046;2023-03-31T08:48:54;99393.75;;;10.96;87.92
43820;BME280;67762;52.476;6.046;2023-03-31T08:51:27;99398.28;;;10.95;88.18
43820;BME280;67762;52.476;6.046;2023-03-31T08:54:05;99393.75;;;10.96;88.54
43820;BME280;67762;52.476;6.046;2023-03-31T08:56:34;99397.25;;;10.96;88.54
43820;BME280;67762;52.476;6.046;2023-03-31T08:59:03;99391.69;;;10.91;88.76
43820;BME280;67762;52.476;6.046;2023-03-31T09:01:40;99385.94;;;10.88;88.37
43820;BME280;67762;52.476;6.046;2023-03-31T09:04:35;99385.28;;;10.86;88.94
43820;BME280;67762;52.476;6.046;2023-03-31T09:07:45;99384.03;;;10.75;89.05
43820;BME280;67762;52.476;6.046;2023-03-31T09:13:35;99365.16;;;10.70;89.37
43820;BME280;67762;52.476;6.046;2023-03-31T09:16:14;99382.19;;;10.76;89.69
43820;BME280;67762;52.476;6.046;2023-03-31T09:18:41;99379.56;;;10.82;89.24
43820;BME280;67762;52.476;6.046;2023-03-31T09:21:32;99379.38;;;10.90;88.89
43820;BME280;67762;52.476;6.046;2023-03-31T09:26:54;99364.41;;;11.09;88.83
43820;BME280;67762;52.476;6.046;2023-03-31T09:31:49;99366.50;;;11.20;89.44
43820;BME280;67762;52.476;6.046;2023-03-31T09:34:23;99366.91;;;11.30;89.52
43820;BME280;67762;52.476;6.046;2023-03-31T09:36:48;99366.09;;;11.36;89.57
43820;BME280;67762;52.476;6.046;2023-03-31T09:39:15;99363.63;;;11.35;88.39
43820;BME280;67762;52.476;6.046;2023-03-31T09:41:44;99359.91;;;11.23;89.11
43820;BME280;67762;52.476;6.046;2023-03-31T09:44:26;99350.88;;;11.17;89.42
43820;BME280;67762;52.476;6.046;2023-03-31T09:46:53;99350.06;;;11.10;89.49
43820;BME280;67762;52.476;6.046;2023-03-31T09:49:26;99351.91;;;11.09;88.98
43820;BME280;67762;52.476;6.046;2023-03-31T09:52:05;99346.97;;;11.06;89.34
43820;BME280;67762;52.476;6.046;2023-03-31T09:54:38;99340.63;;;11.07;88.61
43820;BME280;67762;52.476;6.046;2023-03-31T09:59:52;99343.28;;;11.14;89.90
43820;BME280;67762;52.476;6.046;2023-03-31T10:02:34;99336.13;;;11.21;89.18
43820;BME280;67762;52.476;6.046;2023-03-31T10:05:02;99347.22;;;11.38;89.29
43820;BME280;67762;52.476;6.046;2023-03-31T10:07:28;99339.78;;;11.53;89.57
43820;BME280;67762;52.476;6.046;2023-03-31T10:09:54;99331.56;;;11.61;89.54
43820;BME280;67762;52.476;6.046;2023-03-31T10:12:25;99333.41;;;11.67;88.96
43820;BME280;67762;52.476;6.046;2023-03-31T10:15:02;99325.63;;;11.79;89.50
43820;BME280;67762;52.476;6.046;2023-03-31T10:17:28;99323.56;;;11.87;88.50
43820;BME280;67762;52.476;6.046;2023-03-31T10:19:56;99326.19;;;12.00;89.25
43820;BME280;67762;52.476;6.046;2023-03-31T10:24:50;99316.75;;;11.98;88.21
43820;BME280;67762;52.476;6.046;2023-03-31T10:27:22;99325.38;;;12.00;88.39
43820;BME280;67762;52.476;6.046;2023-03-31T10:29:59;99316.75;;;11.98;87.92
43820;BME280;67762;52.476;6.046;2023-03-31T10:32:29;99314.47;;;11.95;88.33
43820;BME280;67762;52.476;6.046;2023-03-31T10:34:58;99317.56;;;11.98;87.65
43820;BME280;67762;52.476;6.046;2023-03-31T10:37:25;99305.81;;;12.06;88.54
43820;BME280;67762;52.476;6.046;2023-03-31T10:40:19;99305.63;;;12.07;87.65
43820;BME280;67762;52.476;6.046;2023-03-31T10:42:49;99308.31;;;12.07;87.07
43820;BME280;67762;52.476;6.046;2023-03-31T10:45:28;99301.72;;;12.03;87.82
43820;BME280;67762;52.476;6.046;2023-03-31T10:47:58;99298.22;;;12.03;88.05
43820;BME280;67762;52.476;6.046;2023-03-31T10:50:31;99298.22;;;12.03;88.16
43820;BME280;67762;52.476;6.046;2023-03-31T10:53:05;99297.19;;;12.04;87.80
43820;BME280;67762;52.476;6.046;2023-03-31T10:56:04;99291.25;;;11.95;87.18
43820;BME280;67762;52.476;6.046;2023-03-31T11:13:29;99275.78;;;13.17;86.62
43820;BME280;67762;52.476;6.046;2023-03-31T11:18:38;99263.91;;;13.56;86.62
43820;BME280;67762;52.476;6.046;2023-03-31T11:27:02;99250.94;;;13.53;83.79
43820;BME280;67762;52.476;6.046;2023-03-31T11:42:52;99237.78;;;13.52;81.79
43820;BME280;67762;52.476;6.046;2023-03-31T11:45:24;99247.53;;;13.46;82.03
43820;BME280;67762;52.476;6.046;2023-03-31T11:47:56;99243.44;;;13.43;81.60
43820;BME280;67762;52.476;6.046;2023-03-31T11:50:26;99251.91;;;13.59;82.19
43820;BME280;67762;52.476;6.046;2023-03-31T11:53:13;99252.09;;;13.82;82.26
43820;BME280;67762;52.476;6.046;2023-03-31T11:55:41;99254.63;;;13.77;80.74
43820;BME280;67762;52.476;6.046;2023-03-31T11:58:14;99247.97;;;13.61;80.08
43820;BME280;67762;52.476;6.046;2023-03-31T12:00:50;99245.88;;;13.45;80.96
43820;BME280;67762;52.476;6.046;2023-03-31T12:03:26;99246.41;;;13.35;81.41
43820;BME280;67762;52.476;6.046;2023-03-31T12:06:10;99237.88;;;13.38;81.09
43820;BME280;67762;52.476;6.046;2023-03-31T12:11:34;99237.19;;;13.25;80.77
43820;BME280;67762;52.476;6.046;2023-03-31T12:14:36;99242.00;;;13.16;80.15
43820;BME280;67762;52.476;6.046;2023-03-31T12:17:14;99227.53;;;13.24;81.03
43820;BME280;67762;52.476;6.046;2023-03-31T12:19:53;99238.47;;;13.22;80.79
43820;BME280;67762;52.476;6.046;2023-03-31T12:22:36;99230.94;;;13.13;80.51
43820;BME280;67762;52.476;6.046;2023-03-31T12:25:04;99227.75;;;13.22;81.07
43820;BME280;67762;52.476;6.046;2023-03-31T12:27:38;99230.97;;;13.31;80.38
43820;BME280;67762;52.476;6.046;2023-03-31T12:30:32;99228.91;;;13.51;81.47
43820;BME280;67762;52.476;6.046;2023-03-31T12:36:10;99219.22;;;13.50;79.89
43820;BME280;67762;52.476;6.046;2023-03-31T12:41:44;99218.72;;;13.60;79.33
43820;BME280;67762;52.476;6.046;2023-03-31T12:55:37;99220.63;;;12.85;79.26
43820;BME280;67762;52.476;6.046;2023-03-31T13:06:02;99214.84;;;12.25;82.40
43820;BME280;67762;52.476;6.046;2023-03-31T13:11:14;99222.34;;;12.04;83.12
43820;BME280;67762;52.476;6.046;2023-03-31T13:13:45;99214.34;;;11.97;84.07
43820;BME280;67762;52.476;6.046;2023-03-31T13:16:19;99211.72;;;11.91;84.17
43820;BME280;67762;52.476;6.046;2023-03-31T13:18:50;99207.41;;;11.83;83.91
43820;BME280;67762;52.476;6.046;2023-03-31T13:21:17;99209.72;;;11.73;84.67
43820;BME280;67762;52.476;6.046;2023-03-31T13:23:44;99217.53;;;11.68;84.94
43820;BME280;67762;52.476;6.046;2023-03-31T13:34:32;99198.16;;;11.86;86.21
43820;BME280;67762;52.476;6.046;2023-03-31T14:05:00;99165.75;;;12.69;85.92
43820;BME280;67762;52.476;6.046;2023-03-31T14:07:34;99169.22;;;12.76;85.78
43820;BME280;67762;52.476;6.046;2023-03-31T14:10:03;99157.56;;;12.89;85.62
43820;BME280;67762;52.476;6.046;2023-03-31T14:14:56;99157.72;;;12.94;84.81
43820;BME280;67762;52.476;6.046;2023-03-31T14:17:36;99149.78;;;12.87;83.91
43820;BME280;67762;52.476;6.046;2023-03-31T14:25:39;99145.72;;;13.03;83.70
43820;BME280;67762;52.476;6.046;2023-03-31T14:28:43;99142.28;;;12.96;83.38
43820;BME280;67762;52.476;6.046;2023-03-31T14:37:06;99137.38;;;12.68;83.44
43820;BME280;67762;52.476;6.046;2023-03-31T14:39:39;99128.38;;;12.63;83.24
43820;BME280;67762;52.476;6.046;2023-03-31T14:42:12;99129.69;;;12.54;82.67
43820;BME280;67762;52.476;6.046;2023-03-31T14:44:39;99130.59;;;12.41;82.66
43820;BME280;67762;52.476;6.046;2023-03-31T14:47:15;99130.25;;;12.31;83.45
43820;BME280;67762;52.476;6.046;2023-03-31T14:49:44;99138.38;;;12.18;83.51
43820;BME280;67762;52.476;6.046;2023-03-31T14:52:20;99129.19;;;12.07;84.44
43820;BME280;67762;52.476;6.046;2023-03-31T14:54:47;99125.47;;;12.08;85.03
43820;BME280;67762;52.476;6.046;2023-03-31T14:57:19;99119.91;;;12.10;85.22
43820;BME280;67762;52.476;6.046;2023-03-31T14:59:51;99127.94;;;12.10;84.57
43820;BME280;67762;52.476;6.046;2023-03-31T15:02:30;99124.91;;;12.00;84.58
43820;BME280;67762;52.476;6.046;2023-03-31T15:04:57;99134.59;;;11.94;85.65
43820;BME280;67762;52.476;6.046;2023-03-31T15:07:23;99118.59;;;11.88;85.80
43820;BME280;67762;52.476;6.046;2023-03-31T15:09:49;99122.72;;;11.84;85.35
43820;BME280;67762;52.476;6.046;2023-03-31T15:12:18;99111.84;;;11.85;85.99
43820;BME280;67762;52.476;6.046;2023-03-31T15:14:48;99123.13;;;11.87;86.68
43820;BME280;67762;52.476;6.046;2023-03-31T15:17:23;99119.03;;;11.85;86.63
43820;BME280;67762;52.476;6.046;2023-03-31T15:19:57;99108.50;;;11.90;85.44
43820;BME280;67762;52.476;6.046;2023-03-31T15:22:25;99115.44;;;12.04;85.83
43820;BME280;67762;52.476;6.046;2023-03-31T15:24:52;99104.63;;;12.17;85.99
43820;BME280;67762;52.476;6.046;2023-03-31T15:27:29;99104.81;;;12.22;86.34
43820;BME280;67762;52.476;6.046;2023-03-31T15:29:58;99111.84;;;12.16;85.49
43820;BME280;67762;52.476;6.046;2023-03-31T15:32:28;99106.38;;;12.05;85.60
43820;BME280;67762;52.476;6.046;2023-03-31T15:34:54;99108.44;;;12.03;85.99
43820;BME280;67762;52.476;6.046;2023-03-31T15:37:38;99084.63;;;11.95;84.91
43820;BME280;67762;52.476;6.046;2023-03-31T15:40:15;99107.25;;;11.92;85.13
43820;BME280;67762;52.476;6.046;2023-03-31T15:42:43;99105.03;;;11.89;84.94
43820;BME280;67762;52.476;6.046;2023-03-31T15:47:53;99092.47;;;11.90;85.65
43820;BME280;67762;52.476;6.046;2023-03-31T15:50:22;99088.97;;;11.89;85.17
43820;BME280;67762;52.476;6.046;2023-03-31T15:52:51;99085.50;;;11.89;85.50
43820;BME280;67762;52.476;6.046;2023-03-31T15:55:29;99086.53;;;11.88;84.91
43820;BME280;67762;52.476;6.046;2023-03-31T15:57:57;99102.16;;;11.84;85.18
43820;BME280;67762;52.476;6.046;2023-03-31T16:02:59;99099.09;;;11.81;86.01
43820;BME280;67762;52.476;6.046;2023-03-31T16:05:35;99092.34;;;11.78;84.86
43820;BME280;67762;52.476;6.046;2023-03-31T16:08:09;99102.84;;;11.73;85.63
43820;BME280;67762;52.476;6.046;2023-03-31T16:10:38;99102.84;;;11.73;85.35
43820;BME280;67762;52.476;6.046;2023-03-31T16:13:06;99091.94;;;11.74;86.13
43820;BME280;67762;52.476;6.046;2023-03-31T16:15:37;99103.44;;;11.75;86.04
43820;BME280;67762;52.476;6.046;2023-03-31T16:18:11;99098.94;;;11.76;85.64
43820;BME280;67762;52.476;6.046;2023-03-31T16:20:43;99090.50;;;11.72;86.15
43820;BME280;67762;52.476;6.046;2023-03-31T16:23:15;99096.91;;;11.71;85.38
43820;BME280;67762;52.476;6.046;2023-03-31T16:25:43;99092.16;;;11.66;85.36
43820;BME280;67762;52.476;6.046;2023-03-31T16:28:16;99091.78;;;11.63;86.19
43820;BME280;67762;52.476;6.046;2023-03-31T16:30:44;99090.56;;;11.59;85.29